createdAt,value
2019-06-23T00:00:18.902Z,1017.57
2019-06-23T00:01:18.896Z,1017.57
2019-06-23T00:02:18.880Z,1017.56
2019-06-23T00:03:18.874Z,1017.59
2019-06-23T00:04:18.876Z,1017.55
2019-06-23T00:05:18.844Z,1017.58
2019-06-23T00:06:18.833Z,1017.61
2019-06-23T00:07:18.830Z,1017.54
2019-06-23T00:08:18.817Z,1017.54
2019-06-23T00:09:18.810Z,1017.55
2019-06-23T00:10:18.790Z,1017.56
2019-06-23T00:11:18.824Z,1017.59
2019-06-23T00:12:18.772Z,1017.58
2019-06-23T00:13:18.758Z,1017.61
2019-06-23T00:14:18.756Z,1017.55
2019-06-23T00:15:18.750Z,1017.57
2019-06-23T00:16:18.729Z,1017.58
2019-06-23T00:17:18.720Z,1017.55
2019-06-23T00:18:18.708Z,1017.60
2019-06-23T00:19:18.695Z,1017.53
2019-06-23T00:20:18.683Z,1017.56
2019-06-23T00:21:18.674Z,1017.55
2019-06-23T00:22:18.665Z,1017.56
2019-06-23T00:23:18.652Z,1017.58
2019-06-23T00:24:18.646Z,1017.54
2019-06-23T00:25:18.631Z,1017.53
2019-06-23T00:26:18.629Z,1017.53
2019-06-23T00:27:18.611Z,1017.50
2019-06-23T00:28:18.602Z,1017.51
2019-06-23T00:29:18.589Z,1017.54
2019-06-23T00:30:18.590Z,1017.53
2019-06-23T00:31:18.567Z,1017.52
2019-06-23T00:32:18.558Z,1017.54
2019-06-23T00:33:18.556Z,1017.53
2019-06-23T00:34:18.538Z,1017.54
2019-06-23T00:35:18.523Z,1017.52
2019-06-23T00:36:18.517Z,1017.49
2019-06-23T00:37:18.503Z,1017.54
2019-06-23T00:38:18.496Z,1017.55
2019-06-23T00:39:18.482Z,1017.55
2019-06-23T00:40:18.474Z,1017.53
2019-06-23T00:41:18.460Z,1017.53
2019-06-23T00:42:18.450Z,1017.54
2019-06-23T00:43:18.443Z,1017.50
2019-06-23T00:44:18.435Z,1017.48
2019-06-23T00:45:18.507Z,1017.45
2019-06-23T00:46:18.407Z,1017.46
2019-06-23T00:47:18.395Z,1017.50
2019-06-23T00:48:18.387Z,1017.46
2019-06-23T00:49:18.381Z,1017.41
2019-06-23T00:50:18.440Z,1017.46
2019-06-23T00:51:18.354Z,1017.47
2019-06-23T00:52:18.347Z,1017.46
2019-06-23T00:53:18.335Z,1017.47
2019-06-23T00:54:18.320Z,1017.46
2019-06-23T00:55:18.312Z,1017.49
2019-06-23T00:56:18.301Z,1017.47
2019-06-23T00:57:18.294Z,1017.42
2019-06-23T00:58:18.281Z,1017.45
2019-06-23T00:59:18.268Z,1017.44
2019-06-23T01:00:18.302Z,1017.41
2019-06-23T01:01:18.270Z,1017.44
2019-06-23T01:02:18.237Z,1017.45
2019-06-23T01:03:18.228Z,1017.50
2019-06-23T01:04:18.216Z,1017.51
2019-06-23T01:05:18.211Z,1017.52
2019-06-23T01:06:18.302Z,1017.49
2019-06-23T01:07:18.197Z,1017.52
2019-06-23T01:08:18.175Z,1017.51
2019-06-23T01:09:18.167Z,1017.52
2019-06-23T01:10:18.154Z,1017.53
2019-06-23T01:11:18.148Z,1017.51
2019-06-23T01:12:18.133Z,1017.45
2019-06-23T01:13:18.127Z,1017.44
2019-06-23T01:14:18.211Z,1017.47
2019-06-23T01:15:18.107Z,1017.44
2019-06-23T01:16:18.091Z,1017.43
2019-06-23T01:17:18.089Z,1017.45
2019-06-23T01:18:18.077Z,1017.45
2019-06-23T01:19:18.063Z,1017.42
2019-06-23T01:20:18.048Z,1017.43
2019-06-23T01:21:18.046Z,1017.45
2019-06-23T01:22:18.101Z,1017.45
2019-06-23T01:23:18.024Z,1017.46
2019-06-23T01:24:18.007Z,1017.47
2019-06-23T01:25:18.004Z,1017.47
2019-06-23T01:26:17.991Z,1017.46
2019-06-23T01:27:17.983Z,1017.45
2019-06-23T01:28:17.986Z,1017.43
2019-06-23T01:29:18.010Z,1017.46
2019-06-23T01:30:17.961Z,1017.44
2019-06-23T01:31:17.992Z,1017.44
2019-06-23T01:32:17.929Z,1017.42
2019-06-23T01:33:17.917Z,1017.44
2019-06-23T01:34:24.520Z,1017.47
2019-06-23T01:35:18.892Z,1017.45
2019-06-23T01:36:17.887Z,1017.49
2019-06-23T01:37:17.878Z,1017.49
2019-06-23T01:38:17.861Z,1017.53
2019-06-23T01:39:17.853Z,1017.54
2019-06-23T01:40:17.851Z,1017.56
2019-06-23T01:41:17.838Z,1017.54
2019-06-23T01:42:17.822Z,1017.53
2019-06-23T01:43:17.809Z,1017.57
2019-06-23T01:44:17.796Z,1017.59
2019-06-23T01:45:17.786Z,1017.58
2019-06-23T01:46:17.776Z,1017.52
2019-06-23T01:47:17.766Z,1017.52
2019-06-23T01:48:17.769Z,1017.60
2019-06-23T01:49:17.791Z,1017.59
2019-06-23T01:50:17.735Z,1017.58
2019-06-23T01:51:17.724Z,1017.57
2019-06-23T01:52:17.716Z,1017.58
2019-06-23T01:53:17.703Z,1017.55
2019-06-23T01:54:17.724Z,1017.57
2019-06-23T01:55:17.681Z,1017.57
2019-06-23T01:56:17.671Z,1017.59
2019-06-23T01:57:17.658Z,1017.59
2019-06-23T01:58:17.647Z,1017.64
2019-06-23T01:59:17.642Z,1017.64
2019-06-23T02:00:17.633Z,1017.64
2019-06-23T02:01:17.636Z,1017.68
2019-06-23T02:02:17.618Z,1017.66
2019-06-23T02:03:17.597Z,1017.64
2019-06-23T02:04:17.589Z,1017.68
2019-06-23T02:05:17.580Z,1017.69
2019-06-23T02:06:17.569Z,1017.70
2019-06-23T02:07:17.556Z,1017.67
2019-06-23T02:08:17.553Z,1017.67
2019-06-23T02:09:17.532Z,1017.64
2019-06-23T02:10:17.526Z,1017.66
2019-06-23T02:11:17.511Z,1017.65
2019-06-23T02:12:17.511Z,1017.65
2019-06-23T02:13:17.494Z,1017.65
2019-06-23T02:14:17.482Z,1017.65
2019-06-23T02:15:17.486Z,1017.64
2019-06-23T02:16:17.473Z,1017.64
2019-06-23T02:17:17.452Z,1017.60
2019-06-23T02:18:17.447Z,1017.63
2019-06-23T02:19:17.432Z,1017.59
2019-06-23T02:20:17.418Z,1017.58
2019-06-23T02:21:17.411Z,1017.54
2019-06-23T02:22:17.402Z,1017.58
2019-06-23T02:23:20.454Z,1017.60
2019-06-23T02:24:17.384Z,1017.60
2019-06-23T02:25:17.365Z,1017.61
2019-06-23T02:26:17.358Z,1017.60
2019-06-23T02:27:17.353Z,1017.58
2019-06-23T02:28:17.341Z,1017.63
2019-06-23T02:29:17.325Z,1017.61
2019-06-23T02:30:17.333Z,1017.58
2019-06-23T02:31:17.307Z,1017.58
2019-06-23T02:32:17.291Z,1017.63
2019-06-23T02:33:17.296Z,1017.58
2019-06-23T02:34:17.278Z,1017.59
2019-06-23T02:35:17.271Z,1017.60
2019-06-23T02:36:17.257Z,1017.64
2019-06-23T02:37:17.242Z,1017.62
2019-06-23T02:38:17.234Z,1017.63
2019-06-23T02:39:17.219Z,1017.58
2019-06-23T02:40:17.209Z,1017.60
2019-06-23T02:41:17.202Z,1017.62
2019-06-23T02:42:17.185Z,1017.55
2019-06-23T02:43:17.187Z,1017.56
2019-06-23T02:44:17.166Z,1017.58
2019-06-23T02:45:17.161Z,1017.53
2019-06-23T02:46:17.151Z,1017.54
2019-06-23T02:47:17.247Z,1017.52
2019-06-23T02:48:17.129Z,1017.52
2019-06-23T02:49:17.120Z,1017.57
2019-06-23T02:50:17.103Z,1017.58
2019-06-23T02:51:17.101Z,1017.61
2019-06-23T02:52:17.089Z,1017.64
2019-06-23T02:53:17.075Z,1017.66
2019-06-23T02:54:17.062Z,1017.66
2019-06-23T02:55:17.056Z,1017.62
2019-06-23T02:56:17.038Z,1017.62
2019-06-23T02:57:17.029Z,1017.60
2019-06-23T02:58:17.068Z,1017.62
2019-06-23T02:59:17.016Z,1017.67
2019-06-23T03:00:17.002Z,1017.64
2019-06-23T03:01:16.995Z,1017.63
2019-06-23T03:02:16.982Z,1017.65
2019-06-23T03:03:17.346Z,1017.67
2019-06-23T03:04:16.955Z,1017.63
2019-06-23T03:05:19.061Z,1017.64
2019-06-23T03:06:16.933Z,1017.61
2019-06-23T03:07:16.926Z,1017.58
2019-06-23T03:08:16.915Z,1017.58
2019-06-23T03:09:16.913Z,1017.65
2019-06-23T03:10:16.946Z,1017.64
2019-06-23T03:11:16.886Z,1017.63
2019-06-23T03:12:16.870Z,1017.64
2019-06-23T03:13:16.864Z,1017.66
2019-06-23T03:14:16.949Z,1017.68
2019-06-23T03:15:16.855Z,1017.65
2019-06-23T03:16:16.829Z,1017.65
2019-06-23T03:17:16.828Z,1017.66
2019-06-23T03:18:16.809Z,1017.64
2019-06-23T03:19:16.802Z,1017.60
2019-06-23T03:20:16.916Z,1017.59
2019-06-23T03:21:16.785Z,1017.64
2019-06-23T03:22:16.767Z,1017.60
2019-06-23T03:23:16.759Z,1017.64
2019-06-23T03:24:16.743Z,1017.66
2019-06-23T03:25:16.733Z,1017.61
2019-06-23T03:26:16.721Z,1017.65
2019-06-23T03:27:16.768Z,1017.68
2019-06-23T03:28:16.706Z,1017.64
2019-06-23T03:29:16.692Z,1017.61
2019-06-23T03:30:16.692Z,1017.62
2019-06-23T03:31:16.733Z,1017.61
2019-06-23T03:32:16.666Z,1017.58
2019-06-23T03:33:16.653Z,1017.59
2019-06-23T03:34:16.646Z,1017.58
2019-06-23T03:35:16.628Z,1017.59
2019-06-23T03:36:16.614Z,1017.62
2019-06-23T03:37:16.607Z,1017.66
2019-06-23T03:38:16.605Z,1017.64
2019-06-23T03:39:16.582Z,1017.61
2019-06-23T03:40:16.574Z,1017.63
2019-06-23T03:41:16.613Z,1017.63
2019-06-23T03:42:16.553Z,1017.60
2019-06-23T03:43:16.539Z,1017.60
2019-06-23T03:44:16.530Z,1017.59
2019-06-23T03:45:16.554Z,1017.60
2019-06-23T03:46:16.514Z,1017.60
2019-06-23T03:47:16.498Z,1017.61
2019-06-23T03:48:16.487Z,1017.65
2019-06-23T03:49:16.539Z,1017.62
2019-06-23T03:50:16.476Z,1017.68
2019-06-23T03:51:16.464Z,1017.59
2019-06-23T03:52:16.463Z,1017.62
2019-06-23T03:53:16.432Z,1017.64
2019-06-23T03:54:16.422Z,1017.62
2019-06-23T03:55:17.212Z,1017.61
2019-06-23T03:56:16.403Z,1017.66
2019-06-23T03:57:16.393Z,1017.64
2019-06-23T03:58:16.414Z,1017.66
2019-06-23T03:59:16.381Z,1017.65
2019-06-23T04:00:16.358Z,1017.62
2019-06-23T04:01:16.350Z,1017.72
2019-06-23T04:02:16.573Z,1017.73
2019-06-23T04:03:16.331Z,1017.74
2019-06-23T04:04:16.373Z,1017.73
2019-06-23T04:05:16.308Z,1017.79
2019-06-23T04:06:16.489Z,1017.76
2019-06-23T04:07:16.283Z,1017.78
2019-06-23T04:08:16.276Z,1017.75
2019-06-23T04:09:16.269Z,1017.79
2019-06-23T04:10:16.251Z,1017.78
2019-06-23T04:11:16.240Z,1017.75
2019-06-23T04:12:16.232Z,1017.75
2019-06-23T04:13:16.222Z,1017.76
2019-06-23T04:14:16.290Z,1017.74
2019-06-23T04:15:16.203Z,1017.76
2019-06-23T04:16:16.188Z,1017.79
2019-06-23T04:17:16.177Z,1017.74
2019-06-23T04:18:16.170Z,1017.76
2019-06-23T04:19:16.179Z,1017.78
2019-06-23T04:20:16.148Z,1017.74
2019-06-23T04:21:16.137Z,1017.79
2019-06-23T04:22:16.124Z,1017.80
2019-06-23T04:23:16.118Z,1017.83
2019-06-23T04:24:16.102Z,1017.79
2019-06-23T04:25:16.105Z,1017.81
2019-06-23T04:26:16.081Z,1017.76
2019-06-23T04:27:16.073Z,1017.79
2019-06-23T04:28:16.065Z,1017.79
2019-06-23T04:29:16.047Z,1017.80
2019-06-23T04:30:16.035Z,1017.82
2019-06-23T04:31:16.042Z,1017.78
2019-06-23T04:32:16.025Z,1017.77
2019-06-23T04:33:16.008Z,1017.76
2019-06-23T04:34:15.994Z,1017.76
2019-06-23T04:35:15.987Z,1017.78
2019-06-23T04:36:15.972Z,1017.82
2019-06-23T04:37:15.964Z,1017.83
2019-06-23T04:38:15.953Z,1017.84
2019-06-23T04:39:15.942Z,1017.88
2019-06-23T04:40:15.934Z,1017.86
2019-06-23T04:41:15.919Z,1017.91
2019-06-23T04:42:15.907Z,1017.89
2019-06-23T04:43:15.902Z,1017.92
2019-06-23T04:44:15.885Z,1017.88
2019-06-23T04:45:15.877Z,1017.92
2019-06-23T04:46:15.870Z,1017.93
2019-06-23T04:47:15.853Z,1017.89
2019-06-23T04:48:15.845Z,1017.91
2019-06-23T04:49:15.841Z,1017.94
2019-06-23T04:50:15.829Z,1017.94
2019-06-23T04:51:15.812Z,1017.94
2019-06-23T04:52:15.802Z,1017.93
2019-06-23T04:53:15.790Z,1017.97
2019-06-23T04:54:15.779Z,1017.96
2019-06-23T04:55:15.780Z,1017.99
2019-06-23T04:56:15.761Z,1018.03
2019-06-23T04:57:15.746Z,1018.02
2019-06-23T04:58:15.748Z,1018.02
2019-06-23T04:59:15.740Z,1018.00
2019-06-23T05:00:15.720Z,1018.06
2019-06-23T05:01:15.707Z,1018.01
2019-06-23T05:02:16.834Z,1018.03
2019-06-23T05:03:15.686Z,1017.98
2019-06-23T05:04:15.673Z,1018.00
2019-06-23T05:05:15.675Z,1018.09
2019-06-23T05:06:23.596Z,1018.06
2019-06-23T05:07:16.642Z,1018.05
2019-06-23T05:08:15.639Z,1018.08
2019-06-23T05:09:15.653Z,1018.06
2019-06-23T05:10:15.609Z,1018.06
2019-06-23T05:11:15.609Z,1018.07
2019-06-23T05:12:15.584Z,1018.06
2019-06-23T05:13:15.576Z,1018.11
2019-06-23T05:14:15.567Z,1018.12
2019-06-23T05:15:15.561Z,1018.09
2019-06-23T05:16:15.540Z,1018.10
2019-06-23T05:17:15.534Z,1018.13
2019-06-23T05:18:15.521Z,1018.09
2019-06-23T05:19:15.514Z,1018.13
2019-06-23T05:20:15.501Z,1018.15
2019-06-23T05:21:15.495Z,1018.17
2019-06-23T05:22:15.501Z,1018.16
2019-06-23T05:23:15.473Z,1018.17
2019-06-23T05:24:15.457Z,1018.15
2019-06-23T05:25:15.456Z,1018.17
2019-06-23T05:26:15.436Z,1018.21
2019-06-23T05:27:15.434Z,1018.18
2019-06-23T05:28:15.421Z,1018.19
2019-06-23T05:29:15.416Z,1018.22
2019-06-23T05:30:15.395Z,1018.24
2019-06-23T05:31:15.384Z,1018.22
2019-06-23T05:32:15.371Z,1018.25
2019-06-23T05:33:15.365Z,1018.27
2019-06-23T05:34:15.378Z,1018.26
2019-06-23T05:35:15.351Z,1018.25
2019-06-23T05:36:15.333Z,1018.28
2019-06-23T05:37:15.326Z,1018.29
2019-06-23T05:38:15.309Z,1018.28
2019-06-23T05:39:15.297Z,1018.27
2019-06-23T05:40:15.287Z,1018.27
2019-06-23T05:41:15.279Z,1018.29
2019-06-23T05:42:15.270Z,1018.34
2019-06-23T05:43:15.261Z,1018.30
2019-06-23T05:44:15.246Z,1018.34
2019-06-23T05:45:15.239Z,1018.30
2019-06-23T05:46:15.226Z,1018.28
2019-06-23T05:47:15.218Z,1018.20
2019-06-23T05:48:15.212Z,1018.16
2019-06-23T05:49:15.195Z,1018.25
2019-06-23T05:50:15.428Z,1018.26
2019-06-23T05:51:15.171Z,1018.19
2019-06-23T05:52:15.163Z,1018.26
2019-06-23T05:53:15.157Z,1018.27
2019-06-23T05:54:15.152Z,1018.24
2019-06-23T05:55:15.134Z,1018.24
2019-06-23T05:56:15.122Z,1018.25
2019-06-23T05:57:15.110Z,1018.21
2019-06-23T05:58:15.109Z,1018.28
2019-06-23T05:59:15.087Z,1018.28
2019-06-23T06:00:15.087Z,1018.27
2019-06-23T06:01:15.067Z,1018.29
2019-06-23T06:02:15.135Z,1018.26
2019-06-23T06:03:15.074Z,1018.30
2019-06-23T06:04:15.047Z,1018.30
2019-06-23T06:05:15.076Z,1018.26
2019-06-23T06:06:15.014Z,1018.23
2019-06-23T06:07:15.004Z,1018.22
2019-06-23T06:08:14.995Z,1018.24
2019-06-23T06:09:14.982Z,1018.27
2019-06-23T06:10:14.974Z,1018.25
2019-06-23T06:11:14.968Z,1018.26
2019-06-23T06:12:14.957Z,1018.23
2019-06-23T06:13:14.943Z,1018.21
2019-06-23T06:14:14.950Z,1018.17
2019-06-23T06:15:14.946Z,1018.16
2019-06-23T06:16:14.910Z,1018.14
2019-06-23T06:17:14.901Z,1018.17
2019-06-23T06:18:14.889Z,1018.16
2019-06-23T06:19:14.878Z,1018.16
2019-06-23T06:20:14.866Z,1018.15
2019-06-23T06:21:14.861Z,1018.16
2019-06-23T06:22:14.850Z,1018.18
2019-06-23T06:23:14.836Z,1018.16
2019-06-23T06:24:14.826Z,1018.19
2019-06-23T06:25:14.816Z,1018.17
2019-06-23T06:26:14.855Z,1018.18
2019-06-23T06:27:14.806Z,1018.14
2019-06-23T06:28:14.782Z,1018.13
2019-06-23T06:29:14.779Z,1018.17
2019-06-23T06:30:14.778Z,1018.17
2019-06-23T06:31:14.760Z,1018.15
2019-06-23T06:32:14.740Z,1018.11
2019-06-23T06:33:14.764Z,1018.11
2019-06-23T06:34:14.717Z,1018.12
2019-06-23T06:35:14.709Z,1018.13
2019-06-23T06:36:14.699Z,1018.12
2019-06-23T06:37:14.710Z,1018.16
2019-06-23T06:38:14.674Z,1018.21
2019-06-23T06:39:14.663Z,1018.19
2019-06-23T06:40:14.653Z,1018.19
2019-06-23T06:41:14.642Z,1018.23
2019-06-23T06:42:14.642Z,1018.25
2019-06-23T06:43:14.622Z,1018.28
2019-06-23T06:44:14.611Z,1018.25
2019-06-23T06:45:14.599Z,1018.24
2019-06-23T06:46:14.593Z,1018.26
2019-06-23T06:47:14.586Z,1018.21
2019-06-23T06:48:14.568Z,1018.20
2019-06-23T06:49:14.558Z,1018.22
2019-06-23T06:50:14.548Z,1018.19
2019-06-23T06:51:14.537Z,1018.18
2019-06-23T06:52:14.542Z,1018.16
2019-06-23T06:53:14.520Z,1018.21
2019-06-23T06:54:14.506Z,1018.18
2019-06-23T06:55:14.496Z,1018.22
2019-06-23T06:56:14.484Z,1018.24
2019-06-23T06:57:14.473Z,1018.23
2019-06-23T06:58:14.462Z,1018.20
2019-06-23T06:59:14.454Z,1018.22
2019-06-23T07:00:14.442Z,1018.23
2019-06-23T07:01:14.488Z,1018.28
2019-06-23T07:02:14.419Z,1018.28
2019-06-23T07:03:14.411Z,1018.20
2019-06-23T07:04:14.397Z,1018.18
2019-06-23T07:05:14.391Z,1018.14
2019-06-23T07:06:14.376Z,1018.11
2019-06-23T07:07:26.323Z,1018.13
2019-06-23T07:08:15.382Z,1018.12
2019-06-23T07:09:14.344Z,1018.14
2019-06-23T07:10:14.333Z,1018.10
2019-06-23T07:11:14.331Z,1018.13
2019-06-23T07:12:14.312Z,1018.13
2019-06-23T07:13:14.307Z,1018.11
2019-06-23T07:14:14.291Z,1018.22
2019-06-23T07:15:14.307Z,1018.19
2019-06-23T07:16:14.268Z,1018.16
2019-06-23T07:17:14.267Z,1018.15
2019-06-23T07:18:14.246Z,1018.19
2019-06-23T07:19:14.251Z,1018.16
2019-06-23T07:20:14.234Z,1018.18
2019-06-23T07:21:14.220Z,1018.15
2019-06-23T07:22:14.204Z,1018.16
2019-06-23T07:23:14.211Z,1018.21
2019-06-23T07:24:14.188Z,1018.15
2019-06-23T07:25:14.174Z,1018.16
2019-06-23T07:26:14.161Z,1018.15
2019-06-23T07:27:14.159Z,1018.17
2019-06-23T07:28:14.147Z,1018.15
2019-06-23T07:29:14.134Z,1018.14
2019-06-23T07:30:14.129Z,1018.16
2019-06-23T07:31:14.107Z,1018.19
2019-06-23T07:32:14.112Z,1018.20
2019-06-23T07:33:14.087Z,1018.21
2019-06-23T07:34:14.085Z,1018.18
2019-06-23T07:35:14.066Z,1018.17
2019-06-23T07:36:14.056Z,1018.18
2019-06-23T07:37:14.044Z,1018.20
2019-06-23T07:38:14.042Z,1018.17
2019-06-23T07:39:14.065Z,1018.20
2019-06-23T07:40:14.026Z,1018.17
2019-06-23T07:41:14.002Z,1018.18
2019-06-23T07:42:13.999Z,1018.18
2019-06-23T07:43:13.989Z,1018.15
2019-06-23T07:44:13.969Z,1018.17
2019-06-23T07:45:13.967Z,1018.16
2019-06-23T07:46:13.980Z,1018.19
2019-06-23T07:47:13.938Z,1018.21
2019-06-23T07:48:13.931Z,1018.20
2019-06-23T07:49:13.923Z,1018.25
2019-06-23T07:50:13.908Z,1018.21
2019-06-23T07:51:13.898Z,1018.21
2019-06-23T07:52:13.884Z,1018.20
2019-06-23T07:53:14.077Z,1018.20
2019-06-23T07:54:13.866Z,1018.19
2019-06-23T07:55:13.858Z,1018.22
2019-06-23T07:56:13.842Z,1018.23
2019-06-23T07:57:13.842Z,1018.25
2019-06-23T07:58:13.819Z,1018.23
2019-06-23T07:59:13.811Z,1018.24
2019-06-23T08:00:13.800Z,1018.25
2019-06-23T08:01:13.831Z,1018.26
2019-06-23T08:02:13.777Z,1018.27
2019-06-23T08:03:13.774Z,1018.26
2019-06-23T08:04:13.757Z,1018.29
2019-06-23T08:05:13.744Z,1018.31
2019-06-23T08:06:16.607Z,1018.29
2019-06-23T08:07:13.734Z,1018.28
2019-06-23T08:08:13.723Z,1018.30
2019-06-23T08:09:13.929Z,1018.31
2019-06-23T08:10:13.828Z,1018.32
2019-06-23T08:11:13.681Z,1018.36
2019-06-23T08:12:13.670Z,1018.32
2019-06-23T08:13:13.660Z,1018.30
2019-06-23T08:14:13.649Z,1018.35
2019-06-23T08:15:13.641Z,1018.30
2019-06-23T08:16:13.637Z,1018.29
2019-06-23T08:17:13.615Z,1018.27
2019-06-23T08:18:13.605Z,1018.26
2019-06-23T08:19:13.594Z,1018.33
2019-06-23T08:20:13.588Z,1018.29
2019-06-23T08:21:13.582Z,1018.29
2019-06-23T08:22:13.561Z,1018.27
2019-06-23T08:23:13.553Z,1018.23
2019-06-23T08:24:13.539Z,1018.25
2019-06-23T08:25:13.531Z,1018.25
2019-06-23T08:26:13.635Z,1018.25
2019-06-23T08:27:13.810Z,1018.26
2019-06-23T08:28:13.507Z,1018.29
2019-06-23T08:29:13.488Z,1018.29
2019-06-23T08:30:13.484Z,1018.27
2019-06-23T08:31:13.469Z,1018.31
2019-06-23T08:32:13.471Z,1018.31
2019-06-23T08:33:13.444Z,1018.33
2019-06-23T08:34:13.437Z,1018.34
2019-06-23T08:35:13.423Z,1018.31
2019-06-23T08:36:13.412Z,1018.31
2019-06-23T08:37:13.401Z,1018.28
2019-06-23T08:38:15.964Z,1018.26
2019-06-23T08:39:13.379Z,1018.30
2019-06-23T08:40:13.370Z,1018.28
2019-06-23T08:41:13.367Z,1018.34
2019-06-23T08:42:13.355Z,1018.33
2019-06-23T08:43:13.337Z,1018.34
2019-06-23T08:44:13.334Z,1018.29
2019-06-23T08:45:13.317Z,1018.31
2019-06-23T08:46:13.306Z,1018.29
2019-06-23T08:47:13.294Z,1018.31
2019-06-23T08:48:13.296Z,1018.30
2019-06-23T08:49:13.276Z,1018.29
2019-06-23T08:50:13.271Z,1018.28
2019-06-23T08:51:13.255Z,1018.28
2019-06-23T08:52:13.305Z,1018.28
2019-06-23T08:53:13.231Z,1018.27
2019-06-23T08:54:13.229Z,1018.25
2019-06-23T08:55:13.216Z,1018.26
2019-06-23T08:56:13.216Z,1018.28
2019-06-23T08:57:13.187Z,1018.26
2019-06-23T08:58:13.179Z,1018.26
2019-06-23T08:59:13.166Z,1018.26
2019-06-23T09:00:13.160Z,1018.22
2019-06-23T09:01:13.152Z,1018.22
2019-06-23T09:02:13.133Z,1018.20
2019-06-23T09:03:14.228Z,1018.22
2019-06-23T09:04:13.112Z,1018.22
2019-06-23T09:05:13.101Z,1018.22
2019-06-23T09:06:13.094Z,1018.20
2019-06-23T09:07:13.085Z,1018.17
2019-06-23T09:08:13.074Z,1018.18
2019-06-23T09:09:13.058Z,1018.19
2019-06-23T09:10:13.054Z,1018.23
2019-06-23T09:11:13.039Z,1018.19
2019-06-23T09:12:13.068Z,1018.20
2019-06-23T09:13:13.022Z,1018.22
2019-06-23T09:14:13.008Z,1018.21
2019-06-23T09:15:12.994Z,1018.19
2019-06-23T09:16:12.985Z,1018.14
2019-06-23T09:17:12.981Z,1018.19
2019-06-23T09:18:12.964Z,1018.11
2019-06-23T09:19:12.957Z,1018.13
2019-06-23T09:20:12.965Z,1018.11
2019-06-23T09:21:12.934Z,1018.10
2019-06-23T09:22:12.938Z,1018.09
2019-06-23T09:23:12.923Z,1018.16
2019-06-23T09:24:12.912Z,1018.19
2019-06-23T09:25:12.895Z,1018.14
2019-06-23T09:26:12.885Z,1018.13
2019-06-23T09:27:12.867Z,1018.12
2019-06-23T09:28:12.858Z,1018.12
2019-06-23T09:29:12.846Z,1018.10
2019-06-23T09:30:12.836Z,1018.06
2019-06-23T09:31:12.826Z,1018.04
2019-06-23T09:32:12.814Z,1018.03
2019-06-23T09:33:12.804Z,1018.03
2019-06-23T09:34:12.793Z,1018.03
2019-06-23T09:35:12.785Z,1018.03
2019-06-23T09:36:12.780Z,1018.05
2019-06-23T09:37:12.760Z,1018.06
2019-06-23T09:38:12.748Z,1018.04
2019-06-23T09:39:12.739Z,1018.06
2019-06-23T09:40:12.742Z,1018.11
2019-06-23T09:41:12.717Z,1018.08
2019-06-23T09:42:12.716Z,1018.05
2019-06-23T09:43:12.695Z,1018.08
2019-06-23T09:44:12.689Z,1018.04
2019-06-23T09:45:12.674Z,1018.06
2019-06-23T09:46:12.664Z,1018.03
2019-06-23T09:47:12.655Z,1018.04
2019-06-23T09:48:12.654Z,1018.06
2019-06-23T09:49:12.638Z,1018.02
2019-06-23T09:50:12.619Z,1018.04
2019-06-23T09:51:12.610Z,1018.07
2019-06-23T09:52:12.602Z,1018.04
2019-06-23T09:53:12.591Z,1018.05
2019-06-23T09:54:12.588Z,1018.03
2019-06-23T09:55:14.745Z,1018.01
2019-06-23T09:56:12.568Z,1018.03
2019-06-23T09:57:12.545Z,1018.03
2019-06-23T09:58:12.545Z,1018.05
2019-06-23T09:59:12.524Z,1018.01
2019-06-23T10:00:12.530Z,1018.02
2019-06-23T10:01:12.507Z,1017.96
2019-06-23T10:02:12.528Z,1018.00
2019-06-23T10:03:12.481Z,1018.05
2019-06-23T10:04:12.472Z,1018.05
2019-06-23T10:05:12.470Z,1018.03
2019-06-23T10:06:12.452Z,1018.04
2019-06-23T10:07:12.751Z,1018.05
2019-06-23T10:08:12.430Z,1018.03
2019-06-23T10:09:12.418Z,1018.03
2019-06-23T10:10:12.456Z,1018.01
2019-06-23T10:11:12.398Z,1018.02
2019-06-23T10:12:12.393Z,1017.97
2019-06-23T10:13:12.376Z,1017.95
2019-06-23T10:14:12.362Z,1017.97
2019-06-23T10:15:12.367Z,1017.97
2019-06-23T10:16:12.340Z,1017.96
2019-06-23T10:17:12.334Z,1018.02
2019-06-23T10:18:12.321Z,1017.99
2019-06-23T10:19:12.311Z,1018.01
2019-06-23T10:20:12.299Z,1018.01
2019-06-23T10:21:12.289Z,1017.99
2019-06-23T10:22:12.278Z,1017.92
2019-06-23T10:23:12.273Z,1017.92
2019-06-23T10:24:12.268Z,1017.86
2019-06-23T10:25:12.245Z,1017.86
2019-06-23T10:26:12.234Z,1017.93
2019-06-23T10:27:12.236Z,1017.95
2019-06-23T10:28:12.546Z,1017.91
2019-06-23T10:29:12.224Z,1017.94
2019-06-23T10:30:12.194Z,1017.88
2019-06-23T10:31:12.181Z,1017.93
2019-06-23T10:32:12.406Z,1017.86
2019-06-23T10:33:12.162Z,1017.89
2019-06-23T10:34:12.150Z,1017.87
2019-06-23T10:35:12.144Z,1017.88
2019-06-23T10:36:12.139Z,1017.89
2019-06-23T10:37:12.117Z,1017.79
2019-06-23T10:38:12.108Z,1017.89
2019-06-23T10:39:20.167Z,1017.83
2019-06-23T10:40:13.085Z,1017.87
2019-06-23T10:41:12.093Z,1017.89
2019-06-23T10:42:12.112Z,1017.89
2019-06-23T10:43:12.053Z,1017.90
2019-06-23T10:44:12.042Z,1017.84
2019-06-23T10:45:12.031Z,1017.81
2019-06-23T10:46:12.024Z,1017.83
2019-06-23T10:47:12.010Z,1017.81
2019-06-23T10:48:12.000Z,1017.78
2019-06-23T10:49:11.988Z,1017.78
2019-06-23T10:50:11.979Z,1017.80
2019-06-23T10:51:11.964Z,1017.80
2019-06-23T10:52:11.967Z,1017.82
2019-06-23T10:53:11.956Z,1017.83
2019-06-23T10:54:11.938Z,1017.79
2019-06-23T10:55:11.925Z,1017.79
2019-06-23T10:56:11.918Z,1017.94
2019-06-23T10:57:11.904Z,1017.87
2019-06-23T10:58:11.907Z,1017.85
2019-06-23T10:59:11.912Z,1017.84
2019-06-23T11:00:11.875Z,1017.88
2019-06-23T11:01:11.860Z,1017.87
2019-06-23T11:02:11.887Z,1017.88
2019-06-23T11:03:11.838Z,1017.86
2019-06-23T11:04:11.833Z,1017.88
2019-06-23T11:05:11.816Z,1017.86
2019-06-23T11:06:11.817Z,1017.84
2019-06-23T11:07:11.864Z,1017.83
2019-06-23T11:08:11.793Z,1017.77
2019-06-23T11:09:11.776Z,1017.78
2019-06-23T11:10:11.768Z,1017.75
2019-06-23T11:11:11.757Z,1017.81
2019-06-23T11:12:11.744Z,1017.86
2019-06-23T11:13:11.731Z,1017.85
2019-06-23T11:14:11.722Z,1017.81
2019-06-23T11:15:11.710Z,1017.83
2019-06-23T11:16:11.708Z,1017.72
2019-06-23T11:17:11.695Z,1017.58
2019-06-23T11:18:11.684Z,1017.82
2019-06-23T11:19:11.665Z,1017.82
2019-06-23T11:20:11.660Z,1017.83
2019-06-23T11:21:11.645Z,1017.80
2019-06-23T11:22:11.635Z,1017.80
2019-06-23T11:23:11.639Z,1017.84
2019-06-23T11:24:11.620Z,1017.79
2019-06-23T11:25:11.625Z,1017.80
2019-06-23T11:26:11.592Z,1017.80
2019-06-23T11:27:11.593Z,1017.79
2019-06-23T11:28:11.573Z,1017.73
2019-06-23T11:29:11.562Z,1017.76
2019-06-23T11:30:11.553Z,1017.75
2019-06-23T11:31:11.564Z,1017.73
2019-06-23T11:32:11.531Z,1017.73
2019-06-23T11:33:11.520Z,1017.72
2019-06-23T11:34:11.521Z,1017.73
2019-06-23T11:35:11.495Z,1017.72
2019-06-23T11:36:11.488Z,1017.76
2019-06-23T11:37:11.477Z,1017.76
2019-06-23T11:38:11.520Z,1017.74
2019-06-23T11:39:11.471Z,1017.76
2019-06-23T11:40:11.470Z,1017.73
2019-06-23T11:41:11.435Z,1017.71
2019-06-23T11:42:11.422Z,1017.67
2019-06-23T11:43:11.420Z,1017.64
2019-06-23T11:44:11.405Z,1017.66
2019-06-23T11:45:11.392Z,1017.72
2019-06-23T11:46:11.380Z,1017.69
2019-06-23T11:47:11.366Z,1017.70
2019-06-23T11:48:11.358Z,1017.71
2019-06-23T11:49:11.347Z,1017.76
2019-06-23T11:50:11.764Z,1017.66
2019-06-23T11:51:11.355Z,1017.69
2019-06-23T11:52:11.319Z,1017.72
2019-06-23T11:53:11.313Z,1017.70
2019-06-23T11:54:11.313Z,1017.72
2019-06-23T11:55:11.283Z,1017.66
2019-06-23T11:56:11.284Z,1017.62
2019-06-23T11:57:11.273Z,1017.67
2019-06-23T11:58:11.423Z,1017.61
2019-06-23T11:59:11.242Z,1017.68
2019-06-23T12:00:11.275Z,1017.60
2019-06-23T12:01:11.276Z,1017.56
2019-06-23T12:02:11.217Z,1017.58
2019-06-23T12:03:11.202Z,1017.57
2019-06-23T12:04:11.202Z,1017.52
2019-06-23T12:05:11.182Z,1017.60